Time;durP1;ratioP1;P1;durP2;ratioP2;P2;SDS_P1;SDS_P2;PMS_P1;PMS_P2;Temp;Humidity;BMP_temperature;BMP_pressure;BME280_temperature;BME280_humidity;BME280_pressure;Samples;Min_cycle;Max_cycle;Signal;HPM_P1;HPM_P2
2022/12/07 00:18:21;;;;;;;6.70;1.33;;;;;;;4.63;63.02;99828.16;4510283;31;196537;-81
2022/12/07 00:20:49;;;;;;;3.60;1.70;;;;;;;4.61;62.88;99832.59;4483901;31;32733;-83
2022/12/07 00:23:17;;;;;;;2.12;2.03;;;;;;;4.57;62.40;99831.78;4477480;31;32783;-82
2022/12/07 00:25:45;;;;;;;1.30;1.25;;;;;;;4.39;62.90;99832.09;4504314;31;33256;-83
2022/12/07 00:28:13;;;;;;;0.52;0.52;;;;;;;4.48;62.83;99834.56;4499281;31;34296;-83
2022/12/07 00:30:41;;;;;;;1.05;1.02;;;;;;;4.47;62.69;99829.38;4495788;31;33987;-83
2022/12/07 00:33:10;;;;;;;2.75;1.75;;;;;;;4.47;62.47;99824.13;4504683;31;33472;-83
2022/12/07 00:35:38;;;;;;;4.25;2.80;;;;;;;4.41;62.65;99819.84;4498706;31;36624;-82
2022/12/07 00:38:07;;;;;;;6.93;2.47;;;;;;;4.29;63.22;99820.94;4485331;31;32220;-83
2022/12/07 00:40:35;;;;;;;2.80;1.25;;;;;;;4.33;63.18;99830.47;4494190;31;33372;-83
2022/12/07 00:43:03;;;;;;;2.40;1.67;;;;;;;4.46;62.56;99835.47;4497518;31;34600;-83
2022/12/07 00:45:30;;;;;;;1.05;0.65;;;;;;;4.22;63.33;99824.53;4482585;31;33925;-83
2022/12/07 00:47:58;;;;;;;0.88;0.85;;;;;;;4.48;62.69;99820.63;4486543;31;33675;-83
2022/12/07 00:50:27;;;;;;;2.30;2.20;;;;;;;4.51;62.34;99825.78;4498480;31;33102;-83
2022/12/07 00:52:54;;;;;;;1.48;1.35;;;;;;;4.55;62.23;99832.69;4479147;31;33659;-83
2022/12/07 00:55:22;;;;;;;1.25;1.25;;;;;;;4.43;62.43;99828.56;4484902;31;32866;-82
2022/12/07 00:57:51;;;;;;;8.07;2.45;;;;;;;4.58;61.82;99827.41;4475172;31;32564;-82
2022/12/07 01:00:19;;;;;;;0.05;0.05;;;;;;;4.20;62.91;99826.34;4493904;31;32382;-82
2022/12/07 01:02:48;;;;;;;1.20;1.10;;;;;;;4.15;63.31;99824.69;4492113;31;34284;-82
2022/12/07 01:05:16;;;;;;;0.00;0.00;;;;;;;4.25;62.84;99824.50;4483359;31;32695;-82
2022/12/07 01:07:44;;;;;;;0.28;0.28;;;;;;;4.31;62.67;99816.53;4484799;31;32874;-82
2022/12/07 01:10:13;;;;;;;2.30;2.20;;;;;;;4.18;62.79;99817.69;4487251;31;33966;-82
2022/12/07 01:12:41;;;;;;;0.62;0.62;;;;;;;4.21;62.83;99809.75;4498183;31;33879;-81
2022/12/07 01:15:09;;;;;;;0.13;0.13;;;;;;;4.21;62.70;99811.53;4493943;31;34682;-82
2022/12/07 01:17:37;;;;;;;2.47;2.28;;;;;;;4.34;62.52;99811.28;4484010;31;33810;-82
2022/12/07 01:20:06;;;;;;;0.15;0.15;;;;;;;4.34;62.75;99808.66;4490247;31;31668;-82
2022/12/07 01:22:38;;;;;;;0.57;0.57;;;;;;;4.58;61.67;99807.34;4479758;31;32798;-81
2022/12/07 01:25:07;;;;;;;2.00;1.87;;;;;;;4.60;61.79;99810.81;4497388;31;34441;-82
2022/12/07 01:27:36;;;;;;;1.80;1.02;;;;;;;4.61;61.64;99811.66;4482957;31;33404;-82
2022/12/07 01:30:06;;;;;;;1.25;1.20;;;;;;;4.31;62.59;99813.94;4474827;31;33346;-81
2022/12/07 01:32:34;;;;;;;4.00;1.40;;;;;;;4.15;62.82;99812.50;4470018;31;32358;-81
2022/12/07 01:35:02;;;;;;;1.00;1.00;;;;;;;4.08;63.13;99805.63;4473106;31;32695;-81
2022/12/07 01:37:35;;;;;;;3.45;1.90;;;;;;;4.06;63.00;99817.87;4494708;31;34074;-81
2022/12/07 01:40:06;;;;;;;2.60;2.45;;;;;;;4.05;63.18;99811.78;4485147;31;33002;-81
2022/12/07 01:42:35;;;;;;;3.15;2.80;;;;;;;4.03;63.31;99812.69;4473672;31;33609;-81
2022/12/07 01:45:37;;;;;;;1.30;1.25;;;;;;;3.99;63.58;99813.66;4455731;31;34854;-80
2022/12/07 01:48:06;;;;;;;1.05;1.02;;;;;;;4.12;63.65;99817.75;4491456;31;34427;-81
2022/12/07 01:50:35;;;;;;;0.30;0.30;;;;;;;3.97;64.01;99812.81;4482652;31;31517;-81
2022/12/07 01:53:06;;;;;;;1.25;1.25;;;;;;;4.11;64.02;99806.44;4467573;31;34098;-81
2022/12/07 01:55:35;;;;;;;0.00;0.00;;;;;;;4.20;63.90;99800.22;4485201;31;34683;-81
2022/12/07 01:58:03;;;;;;;1.52;1.42;;;;;;;4.42;63.05;99797.22;4485278;31;33684;-80
2022/12/07 02:00:31;;;;;;;0.43;0.43;;;;;;;4.19;63.82;99790.66;4464104;31;32390;-81
2022/12/07 02:03:16;;;;;;;0.10;0.10;;;;;;;4.30;64.09;99800.91;4483210;31;33604;-80
2022/12/07 02:05:45;;;;;;;2.80;1.45;;;;;;;4.12;65.13;99796.84;4474671;31;34465;-81
2022/12/07 02:08:13;;;;;;;0.77;0.77;;;;;;;4.28;65.10;99793.09;4485370;31;33768;-80
2022/12/07 02:10:41;;;;;;;1.25;1.17;;;;;;;4.35;64.89;99794.69;4475527;31;33998;-81
2022/12/07 02:13:23;;;;;;;1.17;1.02;;;;;;;4.39;65.01;99790.28;4467363;31;34579;-81
2022/12/07 02:16:04;;;;;;;1.65;1.17;;;;;;;4.52;64.56;99793.53;4486042;31;34421;-81
2022/12/07 02:18:38;;;;;;;0.37;0.35;;;;;;;4.55;64.47;99790.84;4474344;31;32225;-81
2022/12/07 02:21:16;;;;;;;0.55;0.50;;;;;;;4.81;63.73;99788.56;4468002;31;34425;-81
2022/12/07 02:23:47;;;;;;;1.10;1.10;;;;;;;4.60;64.81;99799.44;4489314;31;33906;-81
2022/12/07 02:26:32;;;;;;;0.47;0.47;;;;;;;4.65;64.99;99797.59;4493318;31;34026;-81
2022/12/07 02:29:18;;;;;;;0.95;0.95;;;;;;;4.56;65.49;99796.06;4491016;31;34015;-81
2022/12/07 02:32:09;;;;;;;0.28;0.28;;;;;;;4.59;65.39;99795.13;4468688;31;32342;-81
2022/12/07 02:35:09;;;;;;;0.10;0.10;;;;;;;4.66;65.34;99788.91;4467531;31;33750;-82
2022/12/07 02:37:58;;;;;;;0.55;0.55;;;;;;;4.67;65.58;99784.53;4469276;31;33419;-81
2022/12/07 02:40:35;;;;;;;0.45;0.45;;;;;;;4.73;65.76;99784.38;4471721;31;33786;-82
2022/12/07 02:43:08;;;;;;;0.95;0.95;;;;;;;4.79;65.70;99779.03;4473600;31;32630;-82
2022/12/07 02:45:39;;;;;;;0.20;0.20;;;;;;;4.81;65.53;99782.50;4475436;31;33538;-81
2022/12/07 02:48:10;;;;;;;0.20;0.20;;;;;;;4.88;65.36;99779.69;4482739;31;34730;-81
2022/12/07 02:50:37;;;;;;;2.35;0.77;;;;;;;4.94;65.46;99780.47;4469924;31;33793;-82
2022/12/07 02:53:06;;;;;;;5.05;1.58;;;;;;;4.77;66.08;99781.69;4479162;31;33200;-82
2022/12/07 02:55:40;;;;;;;0.30;0.30;;;;;;;4.86;65.65;99771.03;4472090;31;33949;-82
2022/12/07 02:58:27;;;;;;;0.85;0.57;;;;;;;4.88;66.01;99771.00;4489155;31;33915;-82
2022/12/07 03:01:09;;;;;;;5.78;0.55;;;;;;;4.91;65.72;99770.94;4482448;31;33718;-81
2022/12/07 03:03:37;;;;;;;1.85;1.23;;;;;;;5.01;65.72;99768.97;4470078;31;32293;-81
2022/12/07 03:06:08;;;;;;;0.10;0.10;;;;;;;5.04;65.53;99769.78;4470956;31;34314;-82
2022/12/07 03:11:30;;;;;;;1.42;1.33;;;;;;;5.11;65.73;99766.13;4490184;31;33104;-80
2022/12/07 03:14:15;;;;;;;1.17;1.17;;;;;;;5.16;65.53;99768.62;4484166;31;33447;-80
2022/12/07 03:16:47;;;;;;;0.50;0.50;;;;;;;5.18;65.65;99766.88;4487209;31;33898;-81
2022/12/07 03:19:18;;;;;;;0.20;0.20;;;;;;;5.12;65.99;99762.59;4473257;31;34620;-81
2022/12/07 03:21:55;;;;;;;1.55;0.43;;;;;;;5.20;65.98;99762.44;4485012;31;33466;-81
2022/12/07 03:24:31;;;;;;;0.65;0.65;;;;;;;5.48;65.07;99751.34;4484585;31;34103;-81
2022/12/07 03:27:09;;;;;;;0.75;0.75;;;;;;;5.83;63.42;99758.31;4471547;31;33965;-81
2022/12/07 03:29:42;;;;;;;0.35;0.35;;;;;;;5.70;63.83;99754.28;4471122;31;33342;-81
2022/12/07 03:32:23;;;;;;;3.40;1.35;;;;;;;5.66;64.22;99748.28;4489328;31;33478;-81
2022/12/07 03:35:02;;;;;;;0.90;0.90;;;;;;;5.35;65.19;99764.72;4460694;31;32491;-81
2022/12/07 03:37:41;;;;;;;1.30;1.20;;;;;;;5.38;65.38;99755.94;4472579;31;34483;-81
2022/12/07 03:40:22;;;;;;;0.20;0.20;;;;;;;5.30;65.47;99753.47;4471516;31;32815;-81
2022/12/07 03:42:51;;;;;;;1.80;1.70;;;;;;;5.34;65.49;99760.38;4461007;31;32912;-81
2022/12/07 03:45:23;;;;;;;0.68;0.68;;;;;;;5.49;65.54;99760.91;4487720;31;33664;-81
2022/12/07 03:48:04;;;;;;;1.20;1.10;;;;;;;5.81;64.26;99768.00;4475953;31;32433;-82
2022/12/07 03:50:40;;;;;;;0.47;0.47;;;;;;;5.56;65.03;99767.75;4482292;31;34659;-82
2022/12/07 03:53:14;;;;;;;0.50;0.50;;;;;;;5.47;65.78;99762.72;4486217;31;33337;-82
2022/12/07 03:55:48;;;;;;;0.90;0.90;;;;;;;5.46;66.00;99777.56;4471279;31;32742;-82
2022/12/07 03:58:19;;;;;;;0.95;0.95;;;;;;;5.71;65.16;99767.38;4479961;31;34254;-81
2022/12/07 04:00:47;;;;;;;0.80;0.75;;;;;;;5.92;64.71;99773.00;4484473;31;34015;-81
2022/12/07 04:03:15;;;;;;;1.10;1.00;;;;;;;6.11;63.83;99761.12;4484109;31;33611;-81
2022/12/07 04:05:44;;;;;;;4.25;0.70;;;;;;;5.59;65.30;99771.13;4470879;31;32392;-82
2022/12/07 04:08:12;;;;;;;1.08;0.50;;;;;;;5.53;65.82;99763.41;4468033;31;32775;-81
2022/12/07 04:10:40;;;;;;;0.05;0.05;;;;;;;5.63;65.70;99770.16;4486661;31;33920;-81
2022/12/07 04:13:08;;;;;;;2.50;1.00;;;;;;;5.53;66.19;99773.03;4458445;31;33247;-81
2022/12/07 04:15:35;;;;;;;0.98;0.90;;;;;;;5.55;66.58;99776.47;4481785;31;33200;-81
2022/12/07 04:18:04;;;;;;;0.13;0.13;;;;;;;5.56;66.37;99765.13;4469956;31;33306;-81
2022/12/07 04:20:33;;;;;;;1.00;0.47;;;;;;;5.63;66.29;99764.91;4471027;31;33565;-81
2022/12/07 04:23:03;;;;;;;0.80;0.80;;;;;;;6.05;65.05;99764.78;4485032;31;34058;-81
2022/12/07 04:25:31;;;;;;;0.35;0.35;;;;;;;6.02;64.93;99770.09;4476325;31;33888;-81
2022/12/07 04:27:59;;;;;;;0.00;0.00;;;;;;;6.22;64.42;99764.37;4475268;31;33419;-80
2022/12/07 04:30:27;;;;;;;0.13;0.13;;;;;;;6.19;64.64;99769.69;4479218;31;33696;-80
2022/12/07 04:32:57;;;;;;;1.45;1.10;;;;;;;6.23;64.44;99771.31;4483069;31;34290;-80
2022/12/07 04:35:25;;;;;;;0.43;0.43;;;;;;;6.01;65.24;99764.91;4483633;31;33638;-80
2022/12/07 04:37:52;;;;;;;1.92;1.02;;;;;;;5.98;65.51;99768.47;4472007;31;32729;-80
2022/12/07 04:40:20;;;;;;;1.17;0.75;;;;;;;5.95;65.50;99770.31;4486839;31;34357;-81
2022/12/07 04:42:48;;;;;;;0.00;0.00;;;;;;;5.94;65.77;99771.22;4487788;31;33558;-80
2022/12/07 04:45:35;;;;;;;1.70;1.33;;;;;;;6.05;65.60;99766.56;4490461;31;34991;-81
2022/12/07 04:48:23;;;;;;;1.08;0.75;;;;;;;5.95;65.95;99772.94;4475016;31;34533;-80
2022/12/07 04:51:09;;;;;;;0.85;0.85;;;;;;;5.94;66.00;99773.84;4473870;31;35719;-80
2022/12/07 04:53:57;;;;;;;0.08;0.08;;;;;;;5.89;66.35;99777.41;4485127;31;34541;-82
2022/12/07 04:56:26;;;;;;;0.10;0.10;;;;;;;5.97;66.01;99776.34;4486495;31;34237;-82
2022/12/07 04:58:54;;;;;;;0.93;0.93;;;;;;;6.13;65.97;99783.81;4457057;31;33027;-81
2022/12/07 05:01:23;;;;;;;0.60;0.60;;;;;;;6.06;66.22;99779.59;4470744;31;33029;-81
2022/12/07 05:03:52;;;;;;;0.08;0.08;;;;;;;6.07;66.48;99773.47;4471969;31;33746;-81
2022/12/07 05:06:20;;;;;;;0.15;0.15;;;;;;;6.12;66.18;99778.59;4466156;31;32567;-81
2022/12/07 05:08:47;;;;;;;1.27;1.20;;;;;;;6.09;66.45;99779.53;4473856;31;32487;-81
2022/12/07 05:14:15;;;;;;;0.80;0.47;;;;;;;5.97;67.08;99785.09;4486585;31;33559;-81
2022/12/07 05:16:44;;;;;;;0.30;0.30;;;;;;;6.21;66.83;99787.97;4487211;31;32916;-82
2022/12/07 05:19:13;;;;;;;1.02;1.02;;;;;;;6.14;67.23;99776.81;4484164;31;33473;-81
2022/12/07 05:21:43;;;;;;;1.33;1.27;;;;;;;6.07;67.29;99775.22;4486648;31;33948;-81
2022/12/07 05:24:14;;;;;;;0.62;0.62;;;;;;;6.20;67.33;99775.78;4472234;31;34296;-81
2022/12/07 05:26:44;;;;;;;0.45;0.45;;;;;;;6.54;66.25;99775.72;4472715;31;33088;-81
2022/12/07 05:29:14;;;;;;;2.47;1.12;;;;;;;6.53;66.16;99772.25;4485332;31;34617;-82
2022/12/07 05:31:45;;;;;;;0.77;0.77;;;;;;;6.53;66.44;99763.50;4472790;31;33930;-82
2022/12/07 05:34:17;;;;;;;0.25;0.25;;;;;;;6.33;66.91;99767.53;4467757;31;32249;-81
2022/12/07 05:36:47;;;;;;;0.00;0.00;;;;;;;6.38;66.68;99770.03;4457476;31;32218;-81
2022/12/07 05:39:16;;;;;;;0.47;0.47;;;;;;;6.24;67.22;99759.94;4479524;31;33469;-81
2022/12/07 05:44:39;;;;;;;0.03;0.03;;;;;;;6.54;66.65;99766.09;4486783;31;32407;-81
2022/12/07 05:47:08;;;;;;;0.22;0.22;;;;;;;6.56;66.65;99766.06;4468606;31;31435;-81
2022/12/07 05:49:37;;;;;;;0.52;0.52;;;;;;;6.43;66.97;99769.91;4466825;31;33813;-81
2022/12/07 05:52:07;;;;;;;0.40;0.40;;;;;;;6.49;66.65;99767.13;4470424;31;33886;-81
2022/12/07 05:54:37;;;;;;;2.08;1.10;;;;;;;6.52;66.49;99761.81;4471420;31;33144;-81
2022/12/07 05:57:05;;;;;;;1.95;1.77;;;;;;;6.37;67.10;99765.72;4469383;31;32908;-80
2022/12/07 05:59:34;;;;;;;0.88;0.73;;;;;;;6.38;66.95;99765.66;4462875;31;31038;-80
2022/12/07 06:02:03;;;;;;;0.75;0.75;;;;;;;6.55;66.76;99772.19;4476988;31;34319;-80
2022/12/07 06:04:36;;;;;;;2.17;0.98;;;;;;;6.93;65.15;99757.97;4482532;31;33446;-81
2022/12/07 06:07:05;;;;;;;1.75;1.65;;;;;;;6.58;66.36;99764.25;4469817;31;32921;-80
2022/12/07 06:09:35;;;;;;;1.40;1.30;;;;;;;6.60;66.52;99771.19;4483150;31;32715;-81
2022/12/07 06:15:15;;;;;;;0.22;0.22;;;;;;;6.72;66.11;99775.22;4483810;31;34591;-81
2022/12/07 06:17:48;;;;;;;1.05;1.05;;;;;;;6.66;66.14;99772.78;4482494;31;33406;-82
2022/12/07 06:20:17;;;;;;;0.52;0.52;;;;;;;6.79;65.84;99770.63;4481071;31;34629;-82
2022/12/07 06:22:45;;;;;;;0.25;0.25;;;;;;;6.75;65.96;99771.66;4483374;31;33634;-82
2022/12/07 06:25:14;;;;;;;1.55;1.45;;;;;;;6.71;66.00;99767.41;4480428;31;31900;-82
2022/12/07 06:27:48;;;;;;;0.37;0.37;;;;;;;6.75;65.80;99772.50;4469539;31;32104;-82
2022/12/07 06:30:17;;;;;;;0.35;0.35;;;;;;;6.74;66.14;99772.53;4482983;31;32354;-81
2022/12/07 06:32:45;;;;;;;0.35;0.35;;;;;;;6.67;66.28;99777.97;4473785;31;34954;-82
2022/12/07 06:35:14;;;;;;;0.95;0.95;;;;;;;6.81;65.78;99774.09;4469643;31;34231;-84
2022/12/07 06:37:47;;;;;;;0.60;0.60;;;;;;;6.78;66.01;99777.66;4479851;31;32992;-84
2022/12/07 06:40:16;;;;;;;1.00;0.90;;;;;;;6.80;65.93;99775.84;4456736;31;33020;-84
2022/12/07 06:42:44;;;;;;;1.37;1.27;;;;;;;6.70;66.11;99777.03;4467114;31;32855;-84
2022/12/07 06:45:13;;;;;;;2.65;2.42;;;;;;;6.75;65.95;99783.00;4467719;31;32646;-84
2022/12/07 06:47:41;;;;;;;0.73;0.73;;;;;;;6.77;65.92;99785.56;4466164;31;33550;-84
2022/12/07 06:50:14;;;;;;;;;;;;;;;6.77;65.91;99789.06;4469321;31;33799;-84
2022/12/07 06:52:44;;;;;;;3.33;1.92;;;;;;;6.82;65.93;99787.16;4468798;31;34760;-84
2022/12/07 06:55:13;;;;;;;3.00;1.75;;;;;;;6.85;65.90;99797.59;4485042;31;33336;-84
2022/12/07 06:57:42;;;;;;;1.00;1.00;;;;;;;6.89;65.82;99793.13;4467328;31;32579;-84
2022/12/07 07:00:16;;;;;;;1.77;1.45;;;;;;;6.89;65.72;99788.72;4460636;31;32348;-84
2022/12/07 07:02:50;;;;;;;2.40;2.30;;;;;;;6.82;65.97;99792.41;4483041;31;34422;-85
2022/12/07 07:05:21;;;;;;;1.80;1.70;;;;;;;6.86;65.94;99794.03;4482629;31;34438;-84
2022/12/07 07:07:51;;;;;;;3.58;2.42;;;;;;;6.91;65.89;99792.16;4472455;31;33002;-84
2022/12/07 07:10:41;;;;;;;3.28;2.90;;;;;;;6.87;66.12;99792.28;4490618;31;34490;-84
2022/12/07 07:13:08;;;;;;;5.15;4.15;;;;;;;6.95;65.90;99790.31;4474355;31;33253;-84
2022/12/07 07:15:42;;;;;;;3.15;1.95;;;;;;;6.99;65.69;99778.81;4475356;31;33537;-84
2022/12/07 07:18:13;;;;;;;1.30;1.20;;;;;;;6.99;65.94;99793.72;4489036;31;33453;-84
2022/12/07 07:20:41;;;;;;;1.55;1.45;;;;;;;7.06;65.86;99784.72;4483288;31;33884;-84
2022/12/07 07:23:09;;;;;;;5.45;4.62;;;;;;;7.10;65.67;99791.62;4470822;31;33988;-84
2022/12/07 07:25:39;;;;;;;0.77;0.77;;;;;;;7.02;66.06;99789.22;4481810;31;34358;-84
2022/12/07 07:28:08;;;;;;;5.22;2.28;;;;;;;7.00;66.18;99793.66;4456251;31;33637;-85
2022/12/07 07:30:44;;;;;;;1.08;1.08;;;;;;;7.12;66.06;99795.03;4483972;31;33817;-84
2022/12/07 07:33:16;;;;;;;0.62;0.62;;;;;;;7.10;66.28;99796.88;4476850;31;34019;-83
2022/12/07 07:35:44;;;;;;;1.58;1.23;;;;;;;7.05;66.50;99799.62;4469790;31;33705;-83
2022/12/07 07:38:17;;;;;;;2.10;1.90;;;;;;;7.23;65.83;99798.22;4482213;31;31402;-82
2022/12/07 07:40:45;;;;;;;1.08;0.98;;;;;;;7.18;66.25;99797.50;4456543;32;32494;-82
2022/12/07 07:43:13;;;;;;;1.80;1.70;;;;;;;7.22;66.34;99799.16;4481351;31;33462;-82
2022/12/07 07:45:41;;;;;;;0.40;0.40;;;;;;;7.26;66.36;99782.34;4483880;31;33461;-82
2022/12/07 07:48:12;;;;;;;0.88;0.88;;;;;;;7.29;66.53;99784.03;4471029;31;33307;-82
2022/12/07 07:50:40;;;;;;;1.67;1.42;;;;;;;7.35;66.44;99795.22;4465687;31;33398;-82
2022/12/07 07:53:10;;;;;;;0.52;0.52;;;;;;;7.37;66.51;99782.91;4462384;31;32576;-82
2022/12/07 07:55:38;;;;;;;1.95;1.85;;;;;;;7.48;66.28;99790.44;4477649;31;34364;-82
2022/12/07 07:58:07;;;;;;;0.88;0.88;;;;;;;7.45;66.47;99782.66;4471748;31;34989;-82
2022/12/07 08:00:45;;;;;;;1.35;1.27;;;;;;;7.40;66.75;99795.94;4467601;31;33061;-82
2022/12/07 08:03:15;;;;;;;1.77;1.37;;;;;;;7.52;66.66;99791.22;4469189;31;34008;-82
2022/12/07 08:05:45;;;;;;;1.25;0.88;;;;;;;7.72;66.10;99795.84;4483009;31;34521;-82
2022/12/07 08:08:14;;;;;;;0.55;0.55;;;;;;;7.57;66.69;99791.94;4457148;31;32572;-82
2022/12/07 08:10:41;;;;;;;0.82;0.82;;;;;;;8.00;65.14;99787.91;4468889;31;33456;-81
2022/12/07 08:13:16;;;;;;;0.25;0.25;;;;;;;7.96;65.34;99780.13;4482419;31;33976;-81
2022/12/07 08:15:47;;;;;;;0.55;0.55;;;;;;;7.83;65.60;99789.34;4470595;31;33089;-82
2022/12/07 08:18:15;;;;;;;1.52;1.35;;;;;;;7.71;66.55;99800.25;4469099;31;32985;-82
2022/12/07 08:20:47;;;;;;;0.90;0.90;;;;;;;7.69;66.82;99791.53;4473159;31;34671;-82
2022/12/07 08:23:22;;;;;;;2.30;2.08;;;;;;;7.73;67.22;99801.03;4480994;31;34823;-82
2022/12/07 08:26:14;;;;;;;0.60;0.60;;;;;;;7.98;66.27;99798.50;4480063;31;33973;-83
2022/12/07 08:28:43;;;;;;;0.25;0.25;;;;;;;8.23;65.82;99800.28;4465411;31;34079;-83
2022/12/07 08:31:20;;;;;;;0.52;0.52;;;;;;;8.19;66.00;99802.16;4469979;31;33028;-83
2022/12/07 08:33:49;;;;;;;3.47;1.17;;;;;;;8.31;66.00;99799.12;4478508;31;31809;-83
2022/12/07 08:36:18;;;;;;;1.15;1.15;;;;;;;8.42;65.30;99804.91;4485191;31;33937;-83
2022/12/07 08:38:46;;;;;;;0.32;0.32;;;;;;;8.37;65.97;99805.97;4465849;31;33511;-84
2022/12/07 08:41:34;;;;;;;1.35;1.25;;;;;;;8.41;65.59;99803.19;4474026;31;33070;-83
2022/12/07 08:44:06;;;;;;;1.63;1.57;;;;;;;8.61;65.40;99799.00;4471505;31;33698;-83
2022/12/07 08:46:41;;;;;;;0.25;0.25;;;;;;;8.50;65.47;99806.38;4486151;31;33751;-83
2022/12/07 08:49:14;;;;;;;1.02;0.98;;;;;;;8.41;65.47;99802.31;4485993;31;33408;-83
2022/12/07 08:51:44;;;;;;;0.95;0.95;;;;;;;8.56;65.55;99800.94;4483919;31;33237;-84
2022/12/07 08:54:16;;;;;;;0.60;0.57;;;;;;;8.69;65.58;99795.19;4483562;31;33575;-83
2022/12/07 08:56:46;;;;;;;1.02;1.00;;;;;;;8.76;65.24;99797.56;4486187;31;34059;-84
2022/12/07 08:59:19;;;;;;;2.92;1.85;;;;;;;8.63;65.31;99807.69;4484977;31;33122;-83
2022/12/07 09:01:51;;;;;;;1.83;1.73;;;;;;;8.68;64.71;99800.47;4477893;31;32552;-83
2022/12/07 09:04:23;;;;;;;0.20;0.20;;;;;;;9.12;63.31;99803.28;4487480;31;34100;-84
2022/12/07 09:09:30;;;;;;;1.10;1.10;;;;;;;8.98;63.25;99795.87;4472942;31;33627;-84
2022/12/07 09:11:57;;;;;;;0.25;0.25;;;;;;;8.79;63.74;99805.38;4480596;31;33083;-84
2022/12/07 09:14:26;;;;;;;1.90;1.80;;;;;;;8.84;63.30;99801.66;4485312;31;34057;-84
2022/12/07 09:17:09;;;;;;;3.50;2.60;;;;;;;8.86;62.84;99798.94;4479822;31;34512;-84
2022/12/07 09:19:38;;;;;;;0.73;0.73;;;;;;;8.86;63.35;99801.59;4485872;31;32903;-84
2022/12/07 09:22:08;;;;;;;1.80;1.70;;;;;;;9.02;62.82;99797.50;4468614;31;33888;-84
2022/12/07 09:24:37;;;;;;;2.40;1.92;;;;;;;8.75;63.64;99794.09;4486386;31;33970;-83
2022/12/07 09:27:06;;;;;;;0.82;0.82;;;;;;;8.85;62.92;99803.37;4475102;31;33420;-84
2022/12/07 09:29:35;;;;;;;3.40;1.37;;;;;;;9.00;62.46;99790.53;4475179;31;34993;-84
2022/12/07 09:32:03;;;;;;;0.60;0.60;;;;;;;8.94;62.19;99787.22;4485128;31;34193;-84
2022/12/07 09:34:38;;;;;;;1.45;1.33;;;;;;;9.16;60.97;99789.94;4491901;31;33989;-84
2022/12/07 09:37:09;;;;;;;0.45;0.45;;;;;;;9.09;61.19;99791.06;4491514;31;35779;-84
2022/12/07 09:39:39;;;;;;;0.55;0.55;;;;;;;9.27;61.28;99780.75;4485216;31;33457;-84
2022/12/07 09:42:36;;;;;;;3.12;2.92;;;;;;;9.42;61.03;99783.62;4487130;31;34465;-84
2022/12/07 09:45:10;;;;;;;1.75;1.65;;;;;;;9.11;62.37;99778.69;4483486;31;33923;-84
2022/12/07 09:47:38;;;;;;;1.55;1.00;;;;;;;9.39;60.70;99773.19;4476365;31;33142;-84
2022/12/07 09:50:16;;;;;;;0.62;0.55;;;;;;;9.23;60.76;99772.09;4476489;31;31830;-84
2022/12/07 09:52:47;;;;;;;1.10;1.00;;;;;;;9.18;60.90;99771.41;4484833;31;33780;-83
2022/12/07 09:55:23;;;;;;;1.35;1.25;;;;;;;9.17;60.42;99774.97;4471621;31;33083;-84
2022/12/07 09:57:52;;;;;;;2.30;0.98;;;;;;;9.14;60.68;99777.72;4468310;31;32355;-84
2022/12/07 10:00:23;;;;;;;2.30;0.80;;;;;;;9.29;60.55;99771.84;4461292;31;31969;-84
2022/12/07 10:02:57;;;;;;;0.15;0.15;;;;;;;9.18;60.09;99766.16;4482844;31;34538;-83
2022/12/07 10:05:36;;;;;;;1.12;1.05;;;;;;;8.92;59.80;99777.66;4457193;31;32768;-84
2022/12/07 10:10:50;;;;;;;2.58;2.40;;;;;;;9.19;59.77;99775.75;4469581;31;33507;-83
2022/12/07 10:13:21;;;;;;;2.35;1.87;;;;;;;9.52;59.34;99770.09;4470195;31;33766;-84
2022/12/07 10:15:53;;;;;;;5.37;1.90;;;;;;;9.45;59.63;99767.72;4469299;31;33582;-84
2022/12/07 10:18:37;;;;;;;2.37;0.47;;;;;;;9.39;60.26;99767.94;4457825;32;31829;-84
2022/12/07 10:21:11;;;;;;;1.62;1.55;;;;;;;9.48;59.94;99764.94;4443568;32;34070;-84
2022/12/07 10:23:42;;;;;;;1.25;1.17;;;;;;;9.65;59.40;99756.38;4463177;32;32056;-84
2022/12/07 10:26:29;;;;;;;1.30;1.20;;;;;;;9.74;59.34;99757.78;4458550;32;32417;-84
2022/12/07 10:29:01;;;;;;;0.28;0.28;;;;;;;9.70;58.84;99745.62;4465199;32;33282;-84
2022/12/07 10:31:32;;;;;;;;;;;;;;;9.49;59.38;99749.97;4442882;32;32232;-83
2022/12/07 10:34:00;;;;;;;0.80;0.80;;;;;;;9.69;59.07;99755.31;4454712;32;34039;-84
2022/12/07 10:36:32;;;;;;;1.02;0.93;;;;;;;9.95;58.95;99756.00;4455301;32;33786;-84
2022/12/07 10:39:03;;;;;;;0.20;0.20;;;;;;;9.39;59.04;99751.25;4458857;32;31769;-84
2022/12/07 10:41:33;;;;;;;0.68;0.68;;;;;;;9.71;58.89;99750.84;4456059;32;33586;-84
2022/12/07 10:44:04;;;;;;;0.82;0.82;;;;;;;9.98;58.78;99746.19;4455306;32;33589;-84
2022/12/07 10:46:52;;;;;;;0.40;0.40;;;;;;;10.16;57.37;99751.59;4455808;32;34555;-84
2022/12/07 10:49:41;;;;;;;0.80;0.80;;;;;;;9.86;59.21;99751.13;4454586;32;33240;-84
2022/12/07 10:52:19;;;;;;;2.03;1.83;;;;;;;10.16;57.64;99739.28;4447929;32;34146;-84
2022/12/07 10:54:58;;;;;;;0.43;0.43;;;;;;;9.94;57.35;99744.59;4444978;32;33788;-83
2022/12/07 10:57:45;;;;;;;2.72;0.68;;;;;;;10.01;57.28;99750.47;4455190;32;33045;-84
2022/12/07 11:00:24;;;;;;;0.75;0.75;;;;;;;9.98;57.09;99750.63;4454634;32;34060;-84
2022/12/07 11:03:06;;;;;;;1.27;1.23;;;;;;;9.86;56.47;99757.25;4442217;32;32256;-84
2022/12/07 11:05:47;;;;;;;1.00;1.00;;;;;;;10.16;56.46;99746.31;4469609;32;34208;-84
2022/12/07 11:08:18;;;;;;;0.40;0.40;;;;;;;10.03;57.97;99737.25;4446204;32;33051;-83
2022/12/07 11:10:55;;;;;;;1.55;1.45;;;;;;;10.27;56.88;99730.94;4442753;32;33339;-84
2022/12/07 11:13:39;;;;;;;0.10;0.10;;;;;;;10.23;55.96;99729.31;4459541;32;33428;-84
2022/12/07 11:16:25;;;;;;;0.95;0.93;;;;;;;10.22;56.17;99727.63;4472425;31;34137;-84
2022/12/07 11:19:18;;;;;;;0.47;0.47;;;;;;;10.38;54.78;99727.81;4483051;31;33900;-84
2022/12/07 11:25:19;;;;;;;0.93;0.85;;;;;;;10.15;54.74;99727.00;4480813;31;32087;-84
2022/12/07 11:28:11;;;;;;;6.03;1.60;;;;;;;10.21;54.78;99725.91;4486277;31;34679;-84
2022/12/07 11:30:49;;;;;;;1.00;0.93;;;;;;;9.97;54.88;99720.75;4489178;31;33977;-84
2022/12/07 11:33:38;;;;;;;0.30;0.30;;;;;;;10.14;54.46;99727.06;4486199;31;33419;-84
2022/12/07 11:36:34;;;;;;;0.62;0.62;;;;;;;10.07;56.12;99725.63;4475536;31;33495;-84
2022/12/07 11:39:30;;;;;;;0.55;0.55;;;;;;;10.29;54.70;99729.06;4467565;31;33151;-84
2022/12/07 11:42:06;;;;;;;0.32;0.32;;;;;;;10.28;55.00;99716.81;4455461;31;33743;-84
2022/12/07 11:44:41;;;;;;;0.65;0.65;;;;;;;10.13;54.00;99722.72;4468721;31;36438;-84
2022/12/07 11:47:15;;;;;;;0.70;0.70;;;;;;;9.94;54.14;99728.78;4483491;31;32695;-84
2022/12/07 11:49:53;;;;;;;6.30;1.00;;;;;;;10.10;54.04;99730.75;4483774;31;33121;-84
2022/12/07 11:53:13;;;;;;;0.20;0.20;;;;;;;10.39;53.34;99727.75;4476303;31;34016;-84
2022/12/07 11:55:53;;;;;;;1.30;1.17;;;;;;;10.00;54.23;99733.78;4479504;31;33975;-84
2022/12/07 11:58:40;;;;;;;0.10;0.10;;;;;;;10.43;53.08;99729.31;4481001;31;34024;-84
2022/12/07 12:01:17;;;;;;;0.95;0.77;;;;;;;10.37;53.29;99731.41;4479694;31;33544;-84
2022/12/07 12:04:05;;;;;;;0.15;0.15;;;;;;;10.41;53.04;99718.00;4490285;31;33931;-84
2022/12/07 12:06:35;;;;;;;0.32;0.32;;;;;;;10.32;51.96;99710.47;4488026;31;34099;-84
2022/12/07 12:09:18;;;;;;;0.17;0.17;;;;;;;9.91;52.30;99713.06;4480490;31;32977;-84
2022/12/07 12:12:25;;;;;;;0.55;0.55;;;;;;;10.34;52.56;99703.34;4486922;31;33490;-84
2022/12/07 12:15:36;;;;;;;0.90;0.90;;;;;;;10.40;52.14;99695.16;4482961;31;33685;-84
2022/12/07 12:18:16;;;;;;;1.77;1.25;;;;;;;10.36;52.23;99696.22;4468645;31;34475;-84
2022/12/07 12:21:27;;;;;;;0.65;0.65;;;;;;;10.65;51.39;99675.56;4483384;31;33659;-84
2022/12/07 12:24:03;;;;;;;0.85;0.75;;;;;;;10.53;52.22;99679.63;4426770;32;33816;-84
2022/12/07 12:26:37;;;;;;;1.40;1.30;;;;;;;10.37;52.62;99684.72;4413331;32;32698;-84
2022/12/07 12:29:23;;;;;;;0.22;0.22;;;;;;;10.39;52.25;99680.22;4454750;31;34284;-84
2022/12/07 12:32:14;;;;;;;0.20;0.20;;;;;;;10.49;51.84;99678.91;4466345;31;33031;-84
2022/12/07 12:34:58;;;;;;;0.43;0.43;;;;;;;10.79;50.94;99674.94;4482976;31;34647;-84
2022/12/07 12:37:34;;;;;;;0.05;0.03;;;;;;;10.40;51.40;99674.06;4480636;31;32279;-83
2022/12/07 12:40:16;;;;;;;0.40;0.40;;;;;;;10.51;51.70;99673.56;4493766;31;33522;-84
2022/12/07 12:42:48;;;;;;;0.30;0.30;;;;;;;10.44;52.12;99673.00;4489619;31;33977;-84
2022/12/07 12:45:30;;;;;;;0.75;0.75;;;;;;;10.60;52.01;99664.38;4493069;31;34526;-84
2022/12/07 12:48:28;;;;;;;0.37;0.10;;;;;;;10.66;50.73;99659.66;4469102;31;34839;-85
2022/12/07 12:51:39;;;;;;;1.98;1.20;;;;;;;10.61;51.26;99669.56;4474563;31;34353;-85